createdAt,value
2023-12-31T00:00:02.454Z,37.10
2023-12-31T00:02:30.474Z,37.50
2023-12-31T00:04:58.446Z,37.50
2023-12-31T00:07:28.677Z,37.30
2023-12-31T00:09:56.718Z,37.00
2023-12-31T00:12:24.768Z,36.90
2023-12-31T00:14:52.739Z,37.50
2023-12-31T00:17:20.705Z,37.70
2023-12-31T00:19:48.750Z,37.50
2023-12-31T00:22:16.879Z,37.40
2023-12-31T00:24:46.273Z,37.40
2023-12-31T00:27:14.643Z,37.40
2023-12-31T00:29:42.623Z,37.70
2023-12-31T00:32:10.634Z,36.90
2023-12-31T00:34:38.745Z,37.50
2023-12-31T00:37:06.812Z,37.50
2023-12-31T00:39:34.901Z,37.10
2023-12-31T00:42:04.471Z,37.80
2023-12-31T00:44:32.459Z,37.50
2023-12-31T00:47:00.765Z,37.40
2023-12-31T00:49:28.812Z,37.40
2023-12-31T00:51:56.806Z,36.80
2023-12-31T00:54:24.842Z,37.00
2023-12-31T00:56:52.843Z,37.00
2023-12-31T00:59:22.218Z,36.80
2023-12-31T01:01:51.468Z,37.00
2023-12-31T01:04:19.625Z,37.40
2023-12-31T01:06:47.614Z,36.40
2023-12-31T01:09:15.633Z,37.60
2023-12-31T01:11:43.601Z,37.20
2023-12-31T01:14:11.788Z,37.50
2023-12-31T01:16:41.659Z,37.20
2023-12-31T01:19:09.740Z,37.00
2023-12-31T01:21:37.767Z,37.50
2023-12-31T01:24:06.026Z,37.00
2023-12-31T01:26:34.018Z,38.20
2023-12-31T01:29:02.010Z,37.50
2023-12-31T01:31:30.127Z,37.50
2023-12-31T01:33:59.587Z,37.50
2023-12-31T01:36:27.640Z,37.60
2023-12-31T01:38:55.644Z,37.50
2023-12-31T01:41:23.681Z,37.30
2023-12-31T01:43:51.972Z,36.70
2023-12-31T01:46:29.968Z,37.70
2023-12-31T01:49:00.558Z,37.60
2023-12-31T01:51:29.712Z,37.30
2023-12-31T01:54:00.531Z,37.40
2023-12-31T01:56:29.681Z,37.60
2023-12-31T01:58:59.221Z,37.70
2023-12-31T02:01:28.401Z,37.70
2023-12-31T02:03:56.444Z,37.50
2023-12-31T02:06:26.138Z,37.60
2023-12-31T02:08:54.120Z,37.50
2023-12-31T02:11:22.247Z,36.70
2023-12-31T02:13:50.244Z,37.60
2023-12-31T02:16:19.518Z,37.50
2023-12-31T02:18:47.574Z,37.30
2023-12-31T02:21:15.851Z,37.20
2023-12-31T02:23:46.099Z,37.60
2023-12-31T02:26:15.830Z,37.70
2023-12-31T02:28:43.908Z,37.60
2023-12-31T02:31:11.949Z,37.10
2023-12-31T02:33:40.008Z,37.60
2023-12-31T02:36:08.450Z,37.40
2023-12-31T02:38:36.421Z,37.90
2023-12-31T02:41:04.694Z,37.70
2023-12-31T02:43:34.083Z,37.30
2023-12-31T02:46:02.449Z,38.00
2023-12-31T02:48:31.186Z,37.80
2023-12-31T02:50:59.229Z,37.60
2023-12-31T02:53:27.232Z,37.50
2023-12-31T02:55:55.234Z,37.50
2023-12-31T02:58:23.286Z,37.10
2023-12-31T03:00:52.661Z,37.50
2023-12-31T03:03:20.775Z,37.40
2023-12-31T03:05:48.805Z,37.70
2023-12-31T03:08:16.854Z,37.30
2023-12-31T03:10:44.883Z,38.00
2023-12-31T03:13:14.189Z,37.70
2023-12-31T03:15:43.385Z,37.50
2023-12-31T03:18:12.762Z,37.80
2023-12-31T03:20:40.840Z,37.60
2023-12-31T03:23:08.826Z,37.80
2023-12-31T03:25:36.918Z,37.70
2023-12-31T03:28:05.878Z,37.00
2023-12-31T03:30:33.883Z,37.60
2023-12-31T03:33:04.942Z,37.30
2023-12-31T03:35:34.720Z,38.00
2023-12-31T03:38:02.912Z,36.70
2023-12-31T03:40:30.898Z,37.40
2023-12-31T03:42:58.878Z,37.70
2023-12-31T03:45:26.852Z,37.20
2023-12-31T03:47:55.027Z,37.50
2023-12-31T03:50:23.587Z,37.50
2023-12-31T03:52:52.894Z,37.30
2023-12-31T03:55:20.948Z,37.40
2023-12-31T03:57:48.980Z,37.60
2023-12-31T04:00:18.878Z,36.90
2023-12-31T04:02:46.878Z,37.00
2023-12-31T04:05:15.024Z,37.70
2023-12-31T04:07:43.128Z,37.30
2023-12-31T04:10:12.819Z,37.60
2023-12-31T04:12:40.835Z,37.70
2023-12-31T04:15:09.570Z,37.30
2023-12-31T04:17:37.779Z,36.80
2023-12-31T04:20:07.916Z,37.50
2023-12-31T04:22:35.877Z,37.70
2023-12-31T04:25:03.925Z,37.00
2023-12-31T04:27:36.727Z,37.10
2023-12-31T04:30:05.643Z,37.70
2023-12-31T04:32:33.711Z,37.50
2023-12-31T04:35:01.715Z,37.50
2023-12-31T04:37:29.751Z,36.70
2023-12-31T04:39:57.837Z,37.60
2023-12-31T04:42:26.609Z,37.40
2023-12-31T04:44:55.996Z,36.70
2023-12-31T04:47:24.073Z,37.10
2023-12-31T04:49:52.190Z,36.90
2023-12-31T04:52:20.197Z,37.50
2023-12-31T04:54:48.147Z,36.70
2023-12-31T04:57:16.101Z,37.60
2023-12-31T04:59:44.086Z,37.40
2023-12-31T05:02:13.442Z,37.00
2023-12-31T05:04:42.516Z,37.10
2023-12-31T05:07:12.147Z,37.50
2023-12-31T05:09:40.132Z,37.40
2023-12-31T05:12:09.328Z,37.40
2023-12-31T05:14:37.277Z,37.80
2023-12-31T05:17:05.825Z,37.20
2023-12-31T05:19:35.243Z,37.60
2023-12-31T05:22:03.222Z,36.80
2023-12-31T05:24:31.203Z,37.60
2023-12-31T05:26:59.169Z,37.80
2023-12-31T05:29:27.198Z,37.90
2023-12-31T05:31:55.323Z,37.70
2023-12-31T05:34:23.367Z,37.00
2023-12-31T05:36:52.722Z,37.10
2023-12-31T05:39:20.809Z,37.70
2023-12-31T05:41:48.781Z,37.70
2023-12-31T05:44:16.865Z,37.20
2023-12-31T05:46:44.884Z,37.50
2023-12-31T05:49:13.077Z,36.70
2023-12-31T05:51:41.088Z,36.90
2023-12-31T05:54:10.358Z,37.50
2023-12-31T05:56:38.295Z,37.50
2023-12-31T05:59:06.359Z,37.50
2023-12-31T06:01:34.352Z,37.10
2023-12-31T06:04:02.452Z,37.10
2023-12-31T06:06:36.082Z,37.80
2023-12-31T06:09:04.350Z,37.50
2023-12-31T06:11:33.661Z,37.50
2023-12-31T06:14:03.961Z,37.20
2023-12-31T06:16:31.970Z,37.50
2023-12-31T06:18:59.946Z,37.50
2023-12-31T06:21:27.931Z,37.30
2023-12-31T06:23:56.724Z,37.50
2023-12-31T06:26:24.799Z,37.20
2023-12-31T06:28:54.635Z,37.10
2023-12-31T06:31:22.792Z,37.50
2023-12-31T06:33:50.984Z,37.40
2023-12-31T06:36:19.131Z,37.40
2023-12-31T06:38:47.125Z,36.60
2023-12-31T06:41:15.594Z,36.90
2023-12-31T06:43:43.640Z,37.50
2023-12-31T06:46:13.118Z,37.50
2023-12-31T06:48:41.842Z,37.30
2023-12-31T06:51:09.854Z,37.40
2023-12-31T06:53:37.897Z,37.40
2023-12-31T06:56:06.752Z,37.40
2023-12-31T06:58:37.233Z,36.70
2023-12-31T07:01:06.064Z,37.50
2023-12-31T07:03:35.868Z,37.50
2023-12-31T07:06:03.906Z,37.50
2023-12-31T07:08:31.921Z,37.60
2023-12-31T07:10:59.877Z,37.50
2023-12-31T07:13:27.928Z,36.50
2023-12-31T07:15:59.636Z,37.40
2023-12-31T07:18:28.156Z,37.20
2023-12-31T07:20:57.987Z,37.50
2023-12-31T07:23:26.022Z,37.40
2023-12-31T07:25:54.221Z,36.50
2023-12-31T07:28:22.243Z,37.00
2023-12-31T07:30:50.237Z,37.50
2023-12-31T07:33:18.620Z,37.10
2023-12-31T07:35:46.630Z,37.40
2023-12-31T07:38:16.601Z,36.60
2023-12-31T07:40:44.620Z,37.40
2023-12-31T07:43:12.688Z,36.50
2023-12-31T07:45:40.876Z,37.70
2023-12-31T07:48:11.356Z,38.20
2023-12-31T07:50:39.584Z,37.00
2023-12-31T07:53:07.904Z,36.70
2023-12-31T07:55:37.446Z,36.90
2023-12-31T07:58:05.780Z,37.30
2023-12-31T08:00:34.402Z,37.40
2023-12-31T08:03:02.610Z,37.30
2023-12-31T08:05:33.572Z,37.00
2023-12-31T08:08:01.635Z,36.60
2023-12-31T08:10:29.727Z,37.20
2023-12-31T08:12:59.937Z,36.40
2023-12-31T08:15:28.236Z,37.30
2023-12-31T08:17:56.841Z,37.10
2023-12-31T08:20:24.860Z,36.90
2023-12-31T08:22:53.726Z,36.50
2023-12-31T08:25:21.943Z,37.10
2023-12-31T08:27:50.297Z,37.00
2023-12-31T08:30:19.733Z,36.40
2023-12-31T08:32:47.798Z,36.60
2023-12-31T08:35:16.443Z,37.00
2023-12-31T08:37:45.768Z,37.00
2023-12-31T08:40:13.864Z,37.00
2023-12-31T08:42:42.068Z,36.80
2023-12-31T08:45:11.782Z,36.60
2023-12-31T08:47:41.560Z,36.90
2023-12-31T08:50:11.378Z,36.50
2023-12-31T08:52:44.126Z,36.80
2023-12-31T08:55:12.803Z,36.90
2023-12-31T08:57:44.295Z,36.70
2023-12-31T09:00:13.861Z,36.80
2023-12-31T09:02:43.259Z,36.90
2023-12-31T09:05:11.839Z,36.50
2023-12-31T09:07:41.954Z,36.60
2023-12-31T09:10:10.967Z,36.60
2023-12-31T09:12:39.106Z,36.70
2023-12-31T09:15:09.313Z,37.00
2023-12-31T09:17:37.612Z,36.70
2023-12-31T09:20:09.728Z,36.70
2023-12-31T09:22:37.896Z,36.50
2023-12-31T09:25:07.794Z,36.30
2023-12-31T09:27:36.034Z,36.80
2023-12-31T09:30:04.736Z,36.60
2023-12-31T09:32:32.821Z,36.70
2023-12-31T09:35:01.007Z,36.50
2023-12-31T09:37:30.563Z,36.40
2023-12-31T09:39:58.792Z,36.60
2023-12-31T09:42:37.035Z,36.60
2023-12-31T09:45:06.777Z,36.10
2023-12-31T09:47:36.283Z,36.20
2023-12-31T09:50:05.037Z,36.40
2023-12-31T09:52:35.076Z,35.70
2023-12-31T09:55:04.704Z,36.30
2023-12-31T09:57:34.312Z,36.10
2023-12-31T10:00:05.223Z,35.90
2023-12-31T10:02:34.538Z,36.00
2023-12-31T10:05:03.439Z,36.20
2023-12-31T10:07:31.583Z,35.90
2023-12-31T10:10:03.837Z,35.10
2023-12-31T10:12:32.764Z,35.90
2023-12-31T10:15:00.862Z,36.00
2023-12-31T10:17:30.530Z,35.90
2023-12-31T10:20:00.912Z,35.30
2023-12-31T10:22:32.859Z,35.10
2023-12-31T10:25:15.298Z,34.40
2023-12-31T10:27:48.155Z,35.40
2023-12-31T10:30:16.918Z,34.80
2023-12-31T10:32:45.492Z,35.30
2023-12-31T10:35:13.723Z,35.10
2023-12-31T10:37:42.146Z,35.30
2023-12-31T10:40:23.211Z,33.70
2023-12-31T10:42:56.834Z,34.20
2023-12-31T10:45:26.162Z,34.70
2023-12-31T10:47:57.406Z,34.50
2023-12-31T10:50:27.215Z,35.00
2023-12-31T10:52:58.899Z,34.80
2023-12-31T10:55:29.855Z,35.20
2023-12-31T10:58:00.034Z,35.20
2023-12-31T11:00:28.085Z,35.00
2023-12-31T11:02:59.950Z,34.30
2023-12-31T11:05:29.555Z,34.80
2023-12-31T11:08:01.625Z,34.40
2023-12-31T11:10:31.996Z,35.00
2023-12-31T11:13:00.670Z,34.70
2023-12-31T11:15:29.231Z,34.40
2023-12-31T11:18:34.561Z,35.00
2023-12-31T11:21:14.831Z,34.90
2023-12-31T11:23:49.342Z,34.30
2023-12-31T11:26:20.036Z,34.60
2023-12-31T11:28:52.056Z,35.00
2023-12-31T11:31:22.623Z,35.00
2023-12-31T11:33:52.135Z,35.00
2023-12-31T11:36:20.169Z,34.20
2023-12-31T11:39:00.069Z,34.40
2023-12-31T11:41:35.066Z,35.00
2023-12-31T11:44:03.441Z,34.10
2023-12-31T11:46:39.312Z,34.60
2023-12-31T11:49:08.206Z,35.10
2023-12-31T11:51:56.968Z,34.90
2023-12-31T11:54:26.184Z,34.40
2023-12-31T11:56:56.150Z,35.00
2023-12-31T11:59:24.275Z,35.00
2023-12-31T12:01:55.241Z,35.10
2023-12-31T12:04:23.339Z,34.50
2023-12-31T12:06:52.216Z,35.40
2023-12-31T12:09:23.548Z,35.10
2023-12-31T12:11:52.330Z,35.20
2023-12-31T12:14:21.638Z,34.60
2023-12-31T12:16:49.597Z,34.90
2023-12-31T12:19:17.742Z,35.20
2023-12-31T12:21:45.816Z,34.80
2023-12-31T12:24:13.967Z,35.10
2023-12-31T12:26:42.458Z,34.50
2023-12-31T12:29:11.518Z,34.80
2023-12-31T12:31:40.921Z,35.00
2023-12-31T12:34:09.891Z,34.20
2023-12-31T12:36:39.395Z,35.20
2023-12-31T12:39:07.438Z,34.50
2023-12-31T12:41:35.426Z,34.50
2023-12-31T12:44:08.196Z,33.70
2023-12-31T12:46:36.608Z,33.90
2023-12-31T12:49:06.233Z,34.50
2023-12-31T12:51:35.548Z,33.60
2023-12-31T12:54:06.414Z,34.00
2023-12-31T12:56:34.783Z,34.90
2023-12-31T12:59:04.482Z,34.40
2023-12-31T13:01:32.994Z,33.90
2023-12-31T13:04:01.399Z,34.20
2023-12-31T13:06:30.682Z,34.20
2023-12-31T13:08:58.769Z,33.60
2023-12-31T13:11:27.826Z,33.20
2023-12-31T13:13:56.335Z,32.00
2023-12-31T13:16:25.831Z,33.50
2023-12-31T13:18:55.204Z,32.40
2023-12-31T13:21:23.915Z,33.70
2023-12-31T13:23:53.255Z,33.60
2023-12-31T13:26:21.674Z,32.80
2023-12-31T13:28:52.939Z,33.50
2023-12-31T13:31:25.272Z,33.60
2023-12-31T13:33:53.617Z,33.50
2023-12-31T13:36:21.613Z,32.70
2023-12-31T13:38:49.633Z,32.90
2023-12-31T13:41:22.007Z,32.70
2023-12-31T13:43:51.871Z,32.00
2023-12-31T13:46:20.204Z,32.70
2023-12-31T13:48:48.382Z,32.60
2023-12-31T13:51:16.710Z,33.30
2023-12-31T13:53:45.058Z,32.40
2023-12-31T13:56:13.036Z,32.50
2023-12-31T13:58:42.386Z,32.50
2023-12-31T14:01:10.508Z,32.30
2023-12-31T14:03:38.582Z,32.20
2023-12-31T14:06:07.572Z,31.60
2023-12-31T14:08:35.698Z,32.10
2023-12-31T14:11:04.236Z,32.20
2023-12-31T14:13:32.319Z,31.90
2023-12-31T14:16:01.727Z,31.90
2023-12-31T14:18:29.881Z,31.50
2023-12-31T14:20:57.930Z,31.60
2023-12-31T14:23:25.933Z,32.20
2023-12-31T14:25:54.041Z,32.00
2023-12-31T14:28:22.103Z,31.60
2023-12-31T14:30:50.905Z,31.80
2023-12-31T14:33:20.294Z,32.10
2023-12-31T14:35:48.272Z,32.20
2023-12-31T14:38:17.388Z,32.50
2023-12-31T14:40:45.690Z,32.50
2023-12-31T14:43:13.715Z,32.50
2023-12-31T14:45:41.757Z,32.40
2023-12-31T14:48:10.007Z,32.60
2023-12-31T14:50:39.899Z,32.20
2023-12-31T14:53:08.328Z,32.50
2023-12-31T14:55:36.831Z,31.70
2023-12-31T14:58:05.985Z,32.50
2023-12-31T15:00:37.380Z,32.00
2023-12-31T15:03:06.665Z,32.60
2023-12-31T15:05:36.088Z,33.30
2023-12-31T15:08:08.346Z,32.60
2023-12-31T15:10:36.958Z,32.20
2023-12-31T15:13:07.275Z,32.30
2023-12-31T15:15:36.479Z,32.00
2023-12-31T15:18:06.461Z,31.70
2023-12-31T15:20:35.149Z,31.40
2023-12-31T15:23:05.033Z,31.60
2023-12-31T15:25:33.128Z,31.60
2023-12-31T15:28:01.963Z,31.40
2023-12-31T15:30:37.638Z,31.60
2023-12-31T15:33:06.532Z,31.60
2023-12-31T15:35:34.613Z,31.90
2023-12-31T15:38:06.604Z,31.40
2023-12-31T15:40:40.030Z,32.00
2023-12-31T15:43:08.765Z,31.90
2023-12-31T15:45:36.917Z,32.30
2023-12-31T15:48:05.564Z,32.30
2023-12-31T15:50:33.641Z,32.40
2023-12-31T15:53:01.654Z,32.60
2023-12-31T15:55:29.658Z,32.90
2023-12-31T15:57:58.983Z,32.30
2023-12-31T16:00:27.120Z,32.20
2023-12-31T16:02:55.150Z,33.00
2023-12-31T16:05:23.304Z,31.70
2023-12-31T16:07:51.371Z,32.10
2023-12-31T16:10:19.530Z,33.10
2023-12-31T16:12:47.504Z,33.00
2023-12-31T16:15:16.857Z,32.10
2023-12-31T16:17:44.962Z,33.30
2023-12-31T16:20:14.134Z,32.70
2023-12-31T16:22:44.102Z,33.60
2023-12-31T16:25:13.853Z,32.10
2023-12-31T16:27:41.840Z,32.50
2023-12-31T16:30:12.952Z,33.80
2023-12-31T16:32:44.077Z,33.60
2023-12-31T16:35:12.521Z,32.70
2023-12-31T16:37:40.651Z,32.70
2023-12-31T16:40:09.913Z,32.80
2023-12-31T16:42:38.723Z,33.70
2023-12-31T16:45:08.963Z,33.90
2023-12-31T16:47:38.083Z,33.90
2023-12-31T16:50:10.842Z,32.80
2023-12-31T16:52:39.301Z,32.50
2023-12-31T16:55:10.830Z,33.40
2023-12-31T16:57:39.665Z,33.10
2023-12-31T17:00:09.676Z,33.80
2023-12-31T17:02:37.707Z,33.70
2023-12-31T17:05:07.768Z,33.90
2023-12-31T17:07:35.882Z,32.90
2023-12-31T17:10:06.116Z,33.40
2023-12-31T17:12:34.342Z,33.80
2023-12-31T17:15:02.934Z,34.20
2023-12-31T17:17:31.079Z,34.00
2023-12-31T17:19:59.481Z,34.20
2023-12-31T17:22:29.192Z,33.20
2023-12-31T17:24:58.645Z,32.80
2023-12-31T17:27:26.618Z,33.30
2023-12-31T17:29:54.641Z,33.30
2023-12-31T17:32:22.637Z,34.20
2023-12-31T17:34:50.690Z,34.30
2023-12-31T17:37:18.960Z,33.70
2023-12-31T17:39:48.323Z,34.00
2023-12-31T17:42:16.339Z,33.60
2023-12-31T17:44:45.515Z,34.70
2023-12-31T17:47:14.037Z,34.20
2023-12-31T17:49:42.086Z,33.80
2023-12-31T17:52:10.077Z,32.90
2023-12-31T17:54:38.064Z,35.40
2023-12-31T17:57:10.235Z,33.40
2023-12-31T17:59:41.937Z,34.50
2023-12-31T18:02:09.948Z,34.30
2023-12-31T18:04:38.345Z,33.50
2023-12-31T18:07:06.513Z,34.00
2023-12-31T18:09:34.509Z,34.30
2023-12-31T18:12:02.476Z,33.70
2023-12-31T18:14:31.777Z,34.20
2023-12-31T18:16:59.882Z,32.70
2023-12-31T18:19:28.021Z,33.20
2023-12-31T18:21:56.226Z,33.30
2023-12-31T18:24:24.178Z,34.00
2023-12-31T18:26:52.237Z,33.50
2023-12-31T18:29:20.253Z,34.40
2023-12-31T18:31:49.742Z,33.90
2023-12-31T18:34:17.841Z,34.50
2023-12-31T18:36:47.226Z,34.00
2023-12-31T18:39:15.519Z,34.00
2023-12-31T18:41:43.522Z,34.10
2023-12-31T18:44:17.495Z,34.20
2023-12-31T18:46:45.542Z,33.70
2023-12-31T18:49:14.942Z,34.50
2023-12-31T18:51:43.217Z,34.60
2023-12-31T18:54:11.697Z,34.90
2023-12-31T18:56:45.796Z,34.60
2023-12-31T18:59:14.362Z,34.80
2023-12-31T19:01:42.720Z,34.00
2023-12-31T19:04:14.828Z,33.80
2023-12-31T19:06:44.319Z,35.10
2023-12-31T19:09:12.298Z,34.40
2023-12-31T19:11:40.298Z,34.00
2023-12-31T19:14:08.361Z,34.40
2023-12-31T19:16:36.425Z,34.40
2023-12-31T19:19:04.497Z,34.80
2023-12-31T19:21:32.506Z,34.60
2023-12-31T19:24:01.878Z,35.00
2023-12-31T19:26:29.820Z,34.20
2023-12-31T19:28:58.387Z,34.10
2023-12-31T19:31:26.486Z,34.40
2023-12-31T19:33:54.662Z,33.60
2023-12-31T19:36:22.680Z,34.60
2023-12-31T19:38:50.695Z,35.10
2023-12-31T19:41:19.975Z,34.70
2023-12-31T19:44:05.780Z,34.70
2023-12-31T19:46:35.882Z,34.80
2023-12-31T19:49:03.921Z,35.00
2023-12-31T19:51:31.933Z,35.10
2023-12-31T19:54:00.005Z,34.70
2023-12-31T19:56:29.361Z,35.00
2023-12-31T19:58:57.352Z,34.80
2023-12-31T20:01:25.493Z,35.00
2023-12-31T20:03:54.272Z,34.90
2023-12-31T20:06:22.630Z,34.90
2023-12-31T20:08:50.660Z,35.00
2023-12-31T20:11:18.651Z,34.70
2023-12-31T20:13:47.970Z,34.00
2023-12-31T20:16:16.115Z,34.80
2023-12-31T20:18:44.170Z,34.20
2023-12-31T20:21:12.258Z,34.80
2023-12-31T20:23:43.009Z,34.50
2023-12-31T20:26:10.636Z,34.90
2023-12-31T20:28:38.628Z,34.90
2023-12-31T20:31:07.965Z,34.10
2023-12-31T20:33:36.071Z,34.80
2023-12-31T20:36:07.787Z,34.80
2023-12-31T20:38:38.500Z,34.90
2023-12-31T20:41:06.621Z,34.70
2023-12-31T20:43:34.729Z,34.70
2023-12-31T20:46:02.711Z,34.50
2023-12-31T20:48:32.235Z,34.70
2023-12-31T20:51:38.686Z,33.70
2023-12-31T20:54:07.393Z,33.90
2023-12-31T20:56:37.289Z,34.90
2023-12-31T20:59:06.894Z,34.90
2023-12-31T21:01:35.021Z,34.00
2023-12-31T21:04:04.576Z,35.30
2023-12-31T21:06:32.544Z,34.50
2023-12-31T21:09:00.529Z,34.60
2023-12-31T21:11:28.487Z,34.90
2023-12-31T21:13:56.498Z,34.20
2023-12-31T21:16:23.533Z,35.30
2023-12-31T21:18:51.585Z,35.10
2023-12-31T21:21:20.900Z,35.10
2023-12-31T21:23:48.894Z,35.10
2023-12-31T21:26:19.564Z,34.30
2023-12-31T21:28:47.636Z,35.20
2023-12-31T21:31:21.413Z,35.30
2023-12-31T21:33:50.656Z,34.90
2023-12-31T21:36:20.189Z,34.70
2023-12-31T21:38:48.664Z,34.10
2023-12-31T21:41:20.156Z,35.30
2023-12-31T21:43:48.389Z,35.40
2023-12-31T21:46:16.974Z,35.20
2023-12-31T21:48:46.302Z,34.80
2023-12-31T21:51:14.949Z,35.20
2023-12-31T21:53:45.494Z,35.40
2023-12-31T21:56:30.783Z,35.40
2023-12-31T21:59:02.725Z,35.20
2023-12-31T22:01:30.740Z,35.00
2023-12-31T22:03:58.726Z,35.00
2023-12-31T22:06:26.885Z,35.60
2023-12-31T22:08:56.254Z,35.50
2023-12-31T22:11:24.319Z,34.50
2023-12-31T22:13:52.401Z,35.20
2023-12-31T22:16:20.778Z,35.20
2023-12-31T22:18:48.880Z,35.30
2023-12-31T22:21:16.962Z,35.30
2023-12-31T22:23:44.956Z,34.90
2023-12-31T22:26:14.305Z,35.40
2023-12-31T22:28:42.345Z,35.40
2023-12-31T22:31:10.354Z,35.20
2023-12-31T22:33:38.471Z,35.20
2023-12-31T22:36:07.446Z,35.30
2023-12-31T22:38:35.703Z,35.20
2023-12-31T22:41:03.991Z,35.10
2023-12-31T22:43:33.595Z,35.30
2023-12-31T22:46:01.852Z,35.00
2023-12-31T22:48:29.980Z,34.90
2023-12-31T22:50:57.990Z,35.20
2023-12-31T22:53:25.997Z,34.50
2023-12-31T22:55:54.009Z,35.00
2023-12-31T22:58:21.970Z,35.00
2023-12-31T23:00:51.287Z,35.10
2023-12-31T23:03:19.474Z,35.00
2023-12-31T23:05:47.684Z,35.30
2023-12-31T23:08:15.821Z,34.80
2023-12-31T23:10:44.207Z,35.50
2023-12-31T23:13:12.221Z,34.70
2023-12-31T23:15:40.163Z,34.70
2023-12-31T23:18:09.862Z,35.00
2023-12-31T23:20:37.968Z,34.50
2023-12-31T23:23:06.176Z,35.30
2023-12-31T23:25:34.255Z,35.50
2023-12-31T23:28:02.443Z,35.30
2023-12-31T23:30:30.571Z,35.10
2023-12-31T23:32:58.661Z,34.80
2023-12-31T23:35:28.073Z,34.50
2023-12-31T23:37:56.130Z,35.10
2023-12-31T23:40:24.216Z,35.50
2023-12-31T23:42:52.292Z,35.50
2023-12-31T23:45:20.294Z,35.40
2023-12-31T23:47:48.559Z,35.40
2023-12-31T23:50:17.291Z,35.00
2023-12-31T23:52:46.646Z,35.50
2023-12-31T23:55:14.757Z,34.20
2023-12-31T23:57:42.772Z,34.30
